Current | Forecast
Updated: 9:20 AM EET on January 20, 2019
Observed at Kuusamo, Russia
Temperature -22°C
Windchill -30°C
Humidity 84%
Dew Point -24°C
Wind WNW at 11 km/h
Pressure 1001 hPa (Rising)
Conditions Light Snow Showers
Visibility 10.0 kilometers
UV 0 out of 16
Clouds Overcast (OVC) : 1371 m
Yesterday's Maximum -11°C
Yesterday's Minimum -19°C approx.
Yesterday's Heating Degree Days 60 approx.
Sunrise10:31 AM MSK
Sunset3:44 PM MSK
Moon Rise2:26 PM MSK
Moon Set10:12 AM MSK
Moon PhaseMoon Phase
Waxing Gibbous
Raw METARMETAR EFKS 200720Z 30006KT 9999 -SHSN OVC045 M22/M24 Q1001



Units: English | Metric

Find the Weather for any City, State or Zipcode, or Country:

U.S. State List | Severe Weather | Tropical Storms | Ski Conditions
United States | Canada | Central America | South America | Asia | Europe | Australia | Africa | Islands

Weather Underground

© Copyright 2019
The Weather Company, LLC